Latest Weather Observations for Tennant Creek

IDD60801

Issued at 11:01 pm CST Monday 25 May 2015 (issued every 30 minutes, with the page automatically refreshed every 10 minutes)

About weather observations | Map of weather stations | Latest weather observations for NT | Other Formats
Station Details ID: 015135 Name: TENNANT CREEK AIRPORT Lat: -19.64 Lon: 134.18 Height: 375.7 m
Data from the previous 72 hours. | See also: Recent months at Tennant Creek
Date/Time
CST
Temp
°C
App
Temp
°C
Dew
Point
Rel
Hum
%
Delta-T
°C
Wind Press
QNH
hPa
Press
MSL
hPa
Rain
since 9 am
mm
Dir
 
Spd
km/h
Gust
km/h
Spd
kts
Gust
kts
25/11:00pm 20.2 16.8 4.0 34 7.9 E 11 13 6 7 1021.7 - 0.0
25/10:30pm 19.4 16.9 5.0 38 7.1 E 7 9 4 5 1021.7 - 0.0
25/10:00pm 20.0 17.5 4.8 36 7.5 E 7 9 4 5 1021.6 - 0.0
25/09:30pm 20.7 17.7 3.9 33 8.2 ESE 9 11 5 6 1021.7 - 0.0
25/09:00pm 22.3 18.7 3.2 28 9.3 ESE 11 13 6 7 1021.6 1020.1 0.0
25/08:30pm 21.6 19.1 4.5 32 8.5 ESE 7 9 4 5 1021.3 - 0.0
25/08:00pm 22.0 19.5 4.8 32 8.6 ESE 7 9 4 5 1020.8 - 0.0
25/07:30pm 23.8 20.7 3.6 27 10.0 SE 9 11 5 6 1020.3 - 0.0
25/07:00pm 24.4 22.0 5.3 29 9.8 ESE 7 13 4 7 1019.8 - 0.0
25/06:30pm 24.6 22.7 6.8 32 9.4 ESE 6 7 3 4 1019.5 - 0.0
25/06:00pm 26.2 23.6 4.2 24 11.2 E 7 9 4 5 1019.1 1017.6 0.0
25/05:30pm 27.6 24.3 2.6 20 12.5 E 9 15 5 8 1018.8 - 0.0
25/05:00pm 28.1 25.4 3.9 21 12.4 SE 7 13 4 7 1018.6 - 0.0
25/04:30pm 28.7 26.1 4.1 20 12.7 ESE 7 13 4 7 1018.3 - 0.0
25/04:00pm 28.6 26.1 3.6 20 12.8 NE 6 20 3 11 1018.4 - 0.0
25/03:30pm 29.1 26.1 4.2 20 12.9 NE 9 17 5 9 1018.5 - 0.0
25/03:00pm 28.1 25.4 5.5 23 11.9 E 9 20 5 11 1018.6 1017.0 0.0
25/02:30pm 28.9 25.6 4.8 21 12.6 ENE 11 17 6 9 1018.8 - 0.0
25/02:00pm 28.1 23.7 4.9 22 12.1 NNE 17 22 9 12 1019.0 - 0.0
25/01:30pm 27.9 25.0 6.7 26 11.4 NNE 11 24 6 13 1019.4 - 0.0
25/01:00pm 27.2 23.4 6.0 26 11.2 NE 15 24 8 13 1019.9 - 0.0
25/12:30pm 26.9 22.3 6.4 27 10.9 NNE 20 30 11 16 1020.3 - 0.0
25/12:00pm 26.8 22.1 5.9 26 11.0 ENE 20 30 11 16 1020.8 1019.2 0.0
25/11:30am 25.7 21.1 3.9 24 11.0 ENE 17 24 9 13 1021.1 - 0.0
25/11:00am 24.8 19.3 1.8 22 11.1 ENE 20 28 11 15 1021.5 - 0.0
25/10:30am 24.3 18.7 1.5 22 10.9 E 20 32 11 17 1021.7 - 0.0
25/10:00am 22.5 16.6 1.9 25 9.8 E 22 28 12 15 1021.8 - 0.0
25/09:30am 21.6 15.4 1.9 27 9.3 E 24 32 13 17 1021.8 - 0.0
25/08:30am 18.8 12.6 2.3 33 7.7 E 24 32 13 17 1021.6 - 0.0
25/08:00am 17.1 11.9 2.3 37 6.8 ESE 19 28 10 15 1021.5 - 0.0
25/07:30am 15.8 10.5 2.1 39 6.2 ESE 19 24 10 13 1021.3 - 0.0
25/07:00am 15.4 10.1 1.8 40 6.1 ESE 19 26 10 14 1021.1 - 0.0
25/06:30am 15.6 10.1 1.8 39 6.2 ESE 20 28 11 15 1020.5 - 0.0
25/06:00am 15.8 10.8 1.2 37 6.5 ESE 17 24 9 13 1020.4 1018.9 0.0
25/05:30am 15.9 10.5 1.0 36 6.6 ESE 19 26 10 14 1020.2 - 0.0
25/05:00am 15.9 10.5 1.0 36 6.6 ESE 19 28 10 15 1020.3 - 0.0
25/04:30am 15.6 10.2 1.2 37 6.4 ESE 19 28 10 15 1020.1 - 0.0
25/04:00am 15.4 10.3 0.9 37 6.4 ESE 17 24 9 13 1020.1 - 0.0
25/03:30am 15.8 11.0 0.5 35 6.7 ESE 15 22 8 12 1020.4 - 0.0
25/03:00am 15.8 11.0 0.2 34 6.8 ESE 15 22 8 12 1020.5 1019.0 0.0
25/02:30am 15.7 10.5 0.3 35 6.7 ESE 17 22 9 12 1021.0 - 0.0
25/02:00am 16.0 10.8 -0.2 33 7.0 ESE 17 22 9 12 1021.0 - 0.0
25/01:30am 16.2 10.9 -0.5 32 7.2 ESE 17 24 9 13 1020.9 - 0.0
25/01:00am 16.3 11.7 -0.7 31 7.3 ESE 13 22 7 12 1021.3 - 0.0
25/12:30am 16.1 12.0 -0.4 32 7.1 ESE 11 15 6 8 1021.3 - 0.0
25/12:00am 16.8 12.3 -0.6 30 7.5 ESE 13 20 7 11 1021.3 1019.8 0.0
 
Date/Time
CST
Temp
°C
App
Temp
°C
Dew
Point
Rel
Hum
%
Delta-T
°C
Wind Press
QNH
hPa
Press
MSL
hPa
Rain
since 9 am
mm
Dir
 
Spd
km/h
Gust
km/h
Spd
kts
Gust
kts
24/11:30pm 16.8 11.8 -0.9 30 7.6 ESE 15 20 8 11 1021.4 - 0.0
24/11:00pm 17.3 12.6 -1.5 27 8.0 ESE 13 17 7 9 1021.6 - 0.0
24/10:30pm 17.9 13.6 -1.9 26 8.4 ESE 11 15 6 8 1021.5 - 0.0
24/10:00pm 17.7 13.8 -1.5 27 8.2 ESE 9 13 5 7 1021.4 - 0.0
24/09:30pm 17.1 13.3 -0.4 30 7.6 E 9 11 5 6 1021.4 - 0.0
24/09:00pm 18.2 14.2 -2.1 25 8.6 ESE 9 11 5 6 1021.2 1019.7 0.0
24/08:30pm 18.3 14.4 -1.5 26 8.5 ESE 9 11 5 6 1020.8 - 0.0
24/08:00pm 19.0 15.1 -1.6 25 8.9 ESE 9 11 5 6 1020.3 - 0.0
24/07:30pm 19.4 15.4 -2.0 23 9.2 ESE 9 11 5 6 1020.0 - 0.0
24/07:00pm 20.5 16.0 -3.0 20 10.0 ESE 11 13 6 7 1019.6 - 0.0
24/06:30pm 20.9 16.4 -3.0 20 10.2 ESE 11 13 6 7 1019.5 - 0.0
24/06:00pm 22.4 17.2 -3.0 18 11.0 ESE 15 20 8 11 1019.3 1017.8 0.0
24/05:30pm 23.5 18.6 -3.6 16 11.7 ESE 13 20 7 11 1019.3 - 0.0
24/05:00pm 23.6 18.5 -5.3 14 12.1 ESE 13 20 7 11 1019.1 - 0.0
24/04:30pm 24.0 18.6 -4.2 15 12.1 ESE 15 24 8 13 1018.9 - 0.0
24/04:00pm 23.9 18.5 -4.4 15 12.1 SE 15 24 8 13 1018.7 - 0.0
24/03:30pm 24.3 19.1 -2.9 16 12.0 E 15 24 8 13 1018.6 - 0.0
24/03:00pm 23.9 18.6 -3.5 16 11.9 ESE 15 22 8 12 1018.7 1017.1 0.0
24/02:30pm 24.3 19.0 -3.9 15 12.2 E 15 22 8 12 1018.6 - 0.0
24/02:00pm 24.2 18.1 -4.1 15 12.2 ESE 19 28 10 15 1018.9 - 0.0
24/01:30pm 24.1 18.1 -1.6 18 11.6 E 20 28 11 15 1019.0 - 0.0
24/01:00pm 23.1 17.6 -1.8 19 11.1 E 17 28 9 15 1019.7 - 0.0
24/12:30pm 22.4 16.7 -0.9 21 10.5 E 19 28 10 15 1020.3 - 0.0
24/12:00pm 21.5 15.2 -1.2 22 10.1 E 22 32 12 17 1020.3 1018.8 0.0
24/11:30am 21.2 13.7 -1.5 22 10.0 E 28 35 15 19 1020.9 - 0.0
24/11:00am 20.6 13.5 -1.1 23 9.6 E 26 33 14 18 1021.3 - 0.0
24/10:30am 20.1 13.5 -0.6 25 9.2 E 24 32 13 17 1021.5 - 0.0
24/10:00am 18.6 12.1 0.6 30 8.1 E 24 32 13 17 1021.6 - 0.0
24/09:30am 17.4 10.5 0.2 31 7.6 E 26 43 14 23 1021.7 - 0.0
24/09:00am 17.2 10.0 0.5 32 7.4 E 28 41 15 22 1021.2 1019.7 0.0
24/08:30am 15.5 8.6 0.3 35 6.6 E 26 35 14 19 1021.0 - 0.0
24/08:00am 14.2 7.7 0.2 38 6.0 ESE 24 33 13 18 1020.8 - 0.0
24/07:30am 13.1 7.5 0.1 41 5.5 E 19 30 10 16 1020.8 - 0.0
24/07:00am 12.6 7.0 0.0 42 5.3 ESE 19 28 10 15 1020.7 - 0.0
24/06:30am 12.7 6.5 -0.2 41 5.4 ESE 22 33 12 18 1020.3 - 0.0
24/06:00am 12.8 6.6 -0.3 40 5.5 E 22 32 12 17 1020.1 1018.6 0.0
24/05:30am 12.3 6.6 -0.8 40 5.4 E 19 26 10 14 1020.2 - 0.0
24/05:00am 11.7 6.7 -1.1 41 5.2 ESE 15 22 8 12 1020.5 - 0.0
24/04:30am 11.8 6.7 -1.6 39 5.4 ESE 15 20 8 11 1020.3 - 0.0
24/04:00am 11.9 6.8 -1.8 38 5.5 ESE 15 20 8 11 1020.3 - 0.0
24/03:30am 12.3 6.8 -2.2 36 5.8 ESE 17 24 9 13 1020.5 - 0.0
24/03:00am 12.3 6.8 -1.9 37 5.7 SE 17 24 9 13 1020.7 1019.1 0.0
24/02:30am 12.7 7.6 -1.9 36 5.9 SE 15 22 8 12 1020.8 - 0.0
24/02:00am 13.0 8.2 -2.2 35 6.1 ESE 13 20 7 11 1021.2 - 0.0
24/01:30am 13.0 8.2 -2.2 35 6.1 ESE 13 20 7 11 1021.0 - 0.0
24/01:00am 13.2 7.7 -2.2 34 6.2 SE 17 22 9 12 1021.3 - 0.0
24/12:30am 13.8 8.7 -2.3 32 6.5 ESE 15 22 8 12 1021.3 - 0.0
24/12:00am 14.2 9.4 -2.3 32 6.7 ESE 13 20 7 11 1021.6 1020.1 0.0
 
Date/Time
CST
Temp
°C
App
Temp
°C
Dew
Point
Rel
Hum
%
Delta-T
°C
Wind Press
QNH
hPa
Press
MSL
hPa
Rain
since 9 am
mm
Dir
 
Spd
km/h
Gust
km/h
Spd
kts
Gust
kts
23/11:30pm 14.3 9.6 -2.1 32 6.7 ESE 13 17 7 9 1021.4 - 0.0
23/11:00pm 14.5 9.8 -2.1 32 6.8 ESE 13 20 7 11 1021.4 - 0.0
23/10:30pm 15.1 9.9 -2.6 29 7.2 ESE 15 20 8 11 1021.2 - 0.0
23/10:00pm 15.1 10.3 -2.2 30 7.1 ESE 13 17 7 9 1021.4 - 0.0
23/09:30pm 15.5 11.2 -1.8 30 7.2 ESE 11 13 6 7 1021.6 - 0.0
23/09:00pm 15.8 11.5 -1.7 30 7.3 ESE 11 13 6 7 1021.5 1020.0 0.0
23/08:30pm 16.3 12.3 -1.9 28 7.6 ESE 9 13 5 7 1021.3 - 0.0
23/08:00pm 16.9 12.9 -1.9 27 7.9 ESE 9 13 5 7 1021.2 - 0.0
23/07:30pm 17.5 13.1 -2.3 26 8.3 ESE 11 17 6 9 1020.9 - 0.0
23/07:00pm 18.3 13.9 -2.3 24 8.7 ESE 11 15 6 8 1020.5 - 0.0
23/06:30pm 19.3 14.4 -3.5 21 9.5 SE 13 22 7 12 1020.2 - 0.0
23/06:00pm 20.0 15.1 -3.3 20 9.8 ESE 13 20 7 11 1019.8 1018.3 0.0
23/05:30pm 21.2 15.4 -5.1 16 10.8 SE 17 24 9 13 1019.5 - 0.0
23/05:00pm 21.7 15.6 -3.8 18 10.8 ESE 19 26 10 14 1019.3 - 0.0
23/04:30pm 22.1 16.3 -4.2 17 11.1 ESE 17 24 9 13 1019.2 - 0.0
23/04:00pm 21.8 16.0 -4.5 17 11.0 SE 17 26 9 14 1019.5 - 0.0
23/03:30pm 22.0 16.3 -4.0 17 11.0 ESE 17 26 9 14 1019.6 - 0.0
23/03:00pm 21.6 15.3 -4.1 17 10.8 E 20 26 11 14 1019.8 1018.3 0.0
23/02:30pm 21.4 15.4 -3.2 19 10.5 ESE 19 30 10 16 1020.0 - 0.0
23/02:00pm 21.3 15.8 -2.1 20 10.2 ESE 17 28 9 15 1020.7 - 0.0
23/01:30pm 20.9 14.7 -3.0 20 10.2 ESE 20 28 11 15 1021.1 - 0.0
23/01:00pm 20.2 14.1 -2.0 22 9.6 ESE 20 30 11 16 1021.7 - 0.0
23/12:30pm 19.6 12.8 -2.0 23 9.3 ESE 24 41 13 22 1022.3 - 0.0
23/12:00pm 18.7 12.3 -1.5 25 8.7 E 22 30 12 16 1022.6 1021.1 0.0
23/11:30am 18.4 10.8 -2.5 24 8.8 E 28 39 15 21 1022.8 - 0.0
23/11:00am 17.5 10.0 -1.1 28 8.0 E 28 44 15 24 1023.3 - 0.0
23/10:30am 16.6 8.4 -1.0 30 7.5 E 32 43 17 23 1023.6 - 0.0
23/10:00am 16.2 8.1 -0.6 32 7.2 E 32 41 17 22 1024.0 - 0.0
23/09:30am 15.1 6.8 -0.4 34 6.6 E 33 48 18 26 1024.0 - 0.0
23/09:00am 14.1 5.7 -0.7 36 6.2 E 33 46 18 25 1023.9 1022.4 0.0
23/08:30am 13.3 5.2 -0.6 38 5.8 E 32 46 17 25 1023.7 - 0.0
23/08:12am 12.8 5.3 -1.1 38 5.7 ESE 28 50 15 27 1023.6 - 0.0
23/08:00am 12.3 4.8 -1.2 39 5.5 ESE 28 39 15 21 1023.7 - 0.0
23/07:30am 11.8 5.4 -1.7 39 5.4 ESE 22 32 12 17 1023.7 - 0.0
23/07:00am 11.9 4.7 -1.8 38 5.5 ESE 26 35 14 19 1023.5 - 0.0
23/06:30am 12.0 5.2 -1.7 38 5.5 ESE 24 35 13 19 1023.0 - 0.0
23/06:00am 12.2 5.4 -2.1 37 5.7 ESE 24 35 13 19 1022.8 1021.3 0.0
23/05:30am 12.5 5.6 -2.3 35 5.9 E 24 32 13 17 1022.3 - 0.0
23/05:00am 12.7 5.1 -1.9 36 5.9 ESE 28 39 15 21 1022.1 - 0.0
23/04:30am 13.0 5.8 -2.2 35 6.1 ESE 26 35 14 19 1022.2 - 0.0
23/04:00am 13.1 5.8 -2.8 33 6.3 ESE 26 35 14 19 1022.0 - 0.0
23/03:30am 13.2 6.3 -3.0 32 6.4 E 24 35 13 19 1022.1 - 0.0
23/03:00am 13.4 7.1 -3.8 30 6.7 ESE 20 32 11 17 1022.3 1020.8 0.0
23/02:30am 13.7 7.0 -4.5 28 7.0 ESE 22 30 12 16 1022.3 - 0.0
23/02:00am 14.0 7.6 -4.8 27 7.2 ESE 20 28 11 15 1022.3 - 0.0
23/01:30am 14.4 8.0 -5.3 25 7.5 ESE 20 32 11 17 1022.4 - 0.0
23/01:00am 14.6 7.8 -5.3 25 7.6 ESE 22 32 12 17 1022.3 - 0.0
23/12:30am 14.8 8.3 -5.8 23 7.8 ESE 20 30 11 16 1022.6 - 0.0
23/12:00am 15.1 8.2 -5.7 23 7.9 E 22 30 12 16 1022.7 1021.2 0.0
 
Date/Time
CST
Temp
°C
App
Temp
°C
Dew
Point
Rel
Hum
%
Delta-T
°C
Wind Press
QNH
hPa
Press
MSL
hPa
Rain
since 9 am
mm
Dir
 
Spd
km/h
Gust
km/h
Spd
kts
Gust
kts
22/11:30pm 15.3 8.9 -5.2 24 7.9 E 20 30 11 16 1022.8 - 0.0

Other Formats:

Comma delimited format used in spreadsheet applications
http://www.bom.gov.au/fwo/IDD60801/IDD60801.94238.axf

JavaScript Object Notation format (JSON) in row-major order
http://www.bom.gov.au/fwo/IDD60801/IDD60801.94238.json